sensor_id;sensor_type;location;lat;lon;timestamp;P1;durP1;ratioP1;P2;durP2;ratioP2
34359;SDS011;20624;55.870;26.506;2023-11-21T00:00:58;4.80;;;3.08;;
34359;SDS011;20624;55.870;26.506;2023-11-21T00:03:28;5.60;;;3.13;;
34359;SDS011;20624;55.870;26.506;2023-11-21T00:05:56;7.38;;;4.15;;
34359;SDS011;20624;55.870;26.506;2023-11-21T00:08:24;6.78;;;3.47;;
34359;SDS011;20624;55.870;26.506;2023-11-21T00:10:52;5.40;;;4.00;;
34359;SDS011;20624;55.870;26.506;2023-11-21T00:13:21;7.72;;;4.30;;
34359;SDS011;20624;55.870;26.506;2023-11-21T00:15:49;6.65;;;4.47;;
34359;SDS011;20624;55.870;26.506;2023-11-21T00:18:17;6.55;;;3.70;;
34359;SDS011;20624;55.870;26.506;2023-11-21T00:20:45;8.52;;;4.05;;
34359;SDS011;20624;55.870;26.506;2023-11-21T00:23:13;7.60;;;3.97;;
34359;SDS011;20624;55.870;26.506;2023-11-21T00:25:41;7.32;;;3.25;;
34359;SDS011;20624;55.870;26.506;2023-11-21T00:28:09;8.10;;;3.78;;
34359;SDS011;20624;55.870;26.506;2023-11-21T00:30:37;7.30;;;4.53;;
34359;SDS011;20624;55.870;26.506;2023-11-21T00:33:05;7.53;;;4.20;;
34359;SDS011;20624;55.870;26.506;2023-11-21T00:35:33;7.68;;;3.63;;
34359;SDS011;20624;55.870;26.506;2023-11-21T00:38:00;6.50;;;4.20;;
34359;SDS011;20624;55.870;26.506;2023-11-21T00:40:29;8.57;;;4.25;;
34359;SDS011;20624;55.870;26.506;2023-11-21T00:42:58;6.50;;;4.65;;
34359;SDS011;20624;55.870;26.506;2023-11-21T00:45:27;7.85;;;4.43;;
34359;SDS011;20624;55.870;26.506;2023-11-21T00:47:55;8.02;;;4.70;;
34359;SDS011;20624;55.870;26.506;2023-11-21T00:50:25;8.30;;;4.57;;
34359;SDS011;20624;55.870;26.506;2023-11-21T00:52:53;9.43;;;4.15;;
34359;SDS011;20624;55.870;26.506;2023-11-21T00:55:22;7.65;;;4.20;;
34359;SDS011;20624;55.870;26.506;2023-11-21T00:57:49;8.27;;;4.47;;
34359;SDS011;20624;55.870;26.506;2023-11-21T01:00:17;8.50;;;4.90;;
34359;SDS011;20624;55.870;26.506;2023-11-21T01:02:45;6.43;;;4.20;;
34359;SDS011;20624;55.870;26.506;2023-11-21T01:05:15;7.55;;;3.60;;
34359;SDS011;20624;55.870;26.506;2023-11-21T01:07:43;6.55;;;4.03;;
34359;SDS011;20624;55.870;26.506;2023-11-21T01:10:11;7.70;;;4.18;;
34359;SDS011;20624;55.870;26.506;2023-11-21T01:12:39;7.40;;;4.40;;
34359;SDS011;20624;55.870;26.506;2023-11-21T01:15:08;7.75;;;4.63;;
34359;SDS011;20624;55.870;26.506;2023-11-21T01:17:38;8.48;;;4.00;;
34359;SDS011;20624;55.870;26.506;2023-11-21T01:20:07;9.88;;;5.05;;
34359;SDS011;20624;55.870;26.506;2023-11-21T01:22:40;7.45;;;4.18;;
34359;SDS011;20624;55.870;26.506;2023-11-21T01:25:08;6.95;;;4.30;;
34359;SDS011;20624;55.870;26.506;2023-11-21T01:27:37;5.88;;;3.85;;
34359;SDS011;20624;55.870;26.506;2023-11-21T01:30:05;8.95;;;4.25;;
34359;SDS011;20624;55.870;26.506;2023-11-21T01:32:42;7.97;;;4.05;;
34359;SDS011;20624;55.870;26.506;2023-11-21T01:35:11;6.28;;;3.78;;
34359;SDS011;20624;55.870;26.506;2023-11-21T01:37:39;7.10;;;4.03;;
34359;SDS011;20624;55.870;26.506;2023-11-21T01:40:07;17.60;;;5.38;;
34359;SDS011;20624;55.870;26.506;2023-11-21T01:42:41;7.53;;;4.18;;
34359;SDS011;20624;55.870;26.506;2023-11-21T01:45:10;8.35;;;3.90;;
34359;SDS011;20624;55.870;26.506;2023-11-21T01:47:40;5.47;;;3.33;;
34359;SDS011;20624;55.870;26.506;2023-11-21T01:50:08;8.95;;;4.15;;
34359;SDS011;20624;55.870;26.506;2023-11-21T01:52:39;6.65;;;4.07;;
34359;SDS011;20624;55.870;26.506;2023-11-21T01:55:08;9.93;;;4.75;;
34359;SDS011;20624;55.870;26.506;2023-11-21T01:57:36;6.88;;;3.90;;
34359;SDS011;20624;55.870;26.506;2023-11-21T02:00:04;6.35;;;4.20;;
34359;SDS011;20624;55.870;26.506;2023-11-21T02:02:42;7.50;;;4.75;;
34359;SDS011;20624;55.870;26.506;2023-11-21T02:05:11;9.13;;;4.28;;
34359;SDS011;20624;55.870;26.506;2023-11-21T02:07:43;7.10;;;3.92;;
34359;SDS011;20624;55.870;26.506;2023-11-21T02:10:15;5.63;;;3.40;;
34359;SDS011;20624;55.870;26.506;2023-11-21T02:12:44;8.10;;;3.53;;
34359;SDS011;20624;55.870;26.506;2023-11-21T02:15:12;9.18;;;4.10;;
34359;SDS011;20624;55.870;26.506;2023-11-21T02:17:53;9.07;;;4.53;;
34359;SDS011;20624;55.870;26.506;2023-11-21T02:20:22;7.28;;;4.40;;
34359;SDS011;20624;55.870;26.506;2023-11-21T02:22:55;6.60;;;4.07;;
34359;SDS011;20624;55.870;26.506;2023-11-21T02:25:27;8.18;;;4.35;;
34359;SDS011;20624;55.870;26.506;2023-11-21T02:27:56;5.78;;;4.05;;
34359;SDS011;20624;55.870;26.506;2023-11-21T02:30:24;10.25;;;4.20;;
34359;SDS011;20624;55.870;26.506;2023-11-21T02:32:54;9.15;;;3.80;;
34359;SDS011;20624;55.870;26.506;2023-11-21T02:35:25;7.75;;;3.95;;
34359;SDS011;20624;55.870;26.506;2023-11-21T02:37:53;6.10;;;3.72;;
34359;SDS011;20624;55.870;26.506;2023-11-21T02:40:22;6.75;;;3.45;;
34359;SDS011;20624;55.870;26.506;2023-11-21T02:42:51;7.18;;;3.53;;
34359;SDS011;20624;55.870;26.506;2023-11-21T02:45:19;8.35;;;4.65;;
34359;SDS011;20624;55.870;26.506;2023-11-21T02:47:48;8.73;;;3.67;;
34359;SDS011;20624;55.870;26.506;2023-11-21T02:50:16;5.75;;;3.78;;
34359;SDS011;20624;55.870;26.506;2023-11-21T02:52:46;7.32;;;4.03;;
34359;SDS011;20624;55.870;26.506;2023-11-21T02:55:14;6.65;;;3.70;;
34359;SDS011;20624;55.870;26.506;2023-11-21T02:57:43;12.23;;;4.88;;
34359;SDS011;20624;55.870;26.506;2023-11-21T03:00:11;12.38;;;4.03;;
34359;SDS011;20624;55.870;26.506;2023-11-21T03:02:42;7.43;;;4.10;;
34359;SDS011;20624;55.870;26.506;2023-11-21T03:05:10;8.30;;;4.20;;
34359;SDS011;20624;55.870;26.506;2023-11-21T03:07:38;8.43;;;4.20;;
34359;SDS011;20624;55.870;26.506;2023-11-21T03:10:07;6.82;;;3.08;;
34359;SDS011;20624;55.870;26.506;2023-11-21T03:12:38;8.05;;;3.90;;
34359;SDS011;20624;55.870;26.506;2023-11-21T03:15:06;10.93;;;4.38;;
34359;SDS011;20624;55.870;26.506;2023-11-21T03:17:35;6.07;;;3.75;;
34359;SDS011;20624;55.870;26.506;2023-11-21T03:20:04;6.15;;;3.58;;
34359;SDS011;20624;55.870;26.506;2023-11-21T03:22:32;7.22;;;3.72;;
34359;SDS011;20624;55.870;26.506;2023-11-21T03:25:00;7.30;;;3.65;;
34359;SDS011;20624;55.870;26.506;2023-11-21T03:27:28;6.55;;;3.67;;
34359;SDS011;20624;55.870;26.506;2023-11-21T03:29:56;6.80;;;2.92;;
34359;SDS011;20624;55.870;26.506;2023-11-21T03:32:23;7.00;;;3.92;;
34359;SDS011;20624;55.870;26.506;2023-11-21T03:34:58;5.32;;;3.40;;
34359;SDS011;20624;55.870;26.506;2023-11-21T03:37:27;7.65;;;3.85;;
34359;SDS011;20624;55.870;26.506;2023-11-21T03:39:55;6.95;;;3.85;;
34359;SDS011;20624;55.870;26.506;2023-11-21T03:42:23;4.78;;;3.20;;
34359;SDS011;20624;55.870;26.506;2023-11-21T03:44:54;5.30;;;3.47;;
34359;SDS011;20624;55.870;26.506;2023-11-21T03:47:22;5.45;;;3.13;;
34359;SDS011;20624;55.870;26.506;2023-11-21T03:49:53;6.43;;;3.50;;
34359;SDS011;20624;55.870;26.506;2023-11-21T03:52:22;10.73;;;4.25;;
34359;SDS011;20624;55.870;26.506;2023-11-21T03:54:51;5.82;;;3.22;;
34359;SDS011;20624;55.870;26.506;2023-11-21T03:57:19;8.73;;;3.53;;
34359;SDS011;20624;55.870;26.506;2023-11-21T03:59:47;6.00;;;2.90;;
34359;SDS011;20624;55.870;26.506;2023-11-21T04:02:15;8.00;;;3.55;;
34359;SDS011;20624;55.870;26.506;2023-11-21T04:04:43;8.00;;;3.20;;
34359;SDS011;20624;55.870;26.506;2023-11-21T04:07:12;9.32;;;3.30;;
34359;SDS011;20624;55.870;26.506;2023-11-21T04:09:40;11.57;;;3.45;;
34359;SDS011;20624;55.870;26.506;2023-11-21T04:12:08;10.32;;;3.63;;
34359;SDS011;20624;55.870;26.506;2023-11-21T04:14:36;6.45;;;2.88;;
34359;SDS011;20624;55.870;26.506;2023-11-21T04:17:04;11.60;;;3.70;;
34359;SDS011;20624;55.870;26.506;2023-11-21T04:19:33;8.57;;;2.90;;
34359;SDS011;20624;55.870;26.506;2023-11-21T04:22:01;10.00;;;3.65;;
34359;SDS011;20624;55.870;26.506;2023-11-21T04:24:29;6.20;;;3.03;;
34359;SDS011;20624;55.870;26.506;2023-11-21T04:26:57;9.02;;;3.53;;
34359;SDS011;20624;55.870;26.506;2023-11-21T04:29:25;6.25;;;3.05;;
34359;SDS011;20624;55.870;26.506;2023-11-21T04:31:53;8.27;;;3.25;;
34359;SDS011;20624;55.870;26.506;2023-11-21T04:34:21;6.93;;;2.78;;
34359;SDS011;20624;55.870;26.506;2023-11-21T04:36:49;5.47;;;3.10;;
34359;SDS011;20624;55.870;26.506;2023-11-21T04:39:17;6.75;;;2.70;;
34359;SDS011;20624;55.870;26.506;2023-11-21T04:41:46;5.82;;;2.70;;
34359;SDS011;20624;55.870;26.506;2023-11-21T04:44:14;5.40;;;2.55;;
34359;SDS011;20624;55.870;26.506;2023-11-21T04:46:43;5.88;;;2.65;;
34359;SDS011;20624;55.870;26.506;2023-11-21T04:49:11;5.80;;;2.90;;
34359;SDS011;20624;55.870;26.506;2023-11-21T04:51:41;8.75;;;2.90;;
34359;SDS011;20624;55.870;26.506;2023-11-21T04:54:09;5.18;;;2.85;;
34359;SDS011;20624;55.870;26.506;2023-11-21T04:56:37;7.25;;;3.00;;
34359;SDS011;20624;55.870;26.506;2023-11-21T04:59:05;6.35;;;2.85;;
34359;SDS011;20624;55.870;26.506;2023-11-21T05:01:33;10.95;;;3.58;;
34359;SDS011;20624;55.870;26.506;2023-11-21T05:04:03;7.82;;;3.15;;
34359;SDS011;20624;55.870;26.506;2023-11-21T05:06:32;8.93;;;3.42;;
34359;SDS011;20624;55.870;26.506;2023-11-21T05:09:00;6.72;;;3.08;;
34359;SDS011;20624;55.870;26.506;2023-11-21T05:11:28;8.30;;;3.63;;
34359;SDS011;20624;55.870;26.506;2023-11-21T05:13:56;12.40;;;4.05;;
34359;SDS011;20624;55.870;26.506;2023-11-21T05:16:25;6.00;;;2.92;;
34359;SDS011;20624;55.870;26.506;2023-11-21T05:18:57;9.35;;;3.53;;
34359;SDS011;20624;55.870;26.506;2023-11-21T05:21:27;5.88;;;3.00;;
34359;SDS011;20624;55.870;26.506;2023-11-21T05:23:59;6.53;;;3.35;;
34359;SDS011;20624;55.870;26.506;2023-11-21T05:26:27;7.05;;;3.30;;
34359;SDS011;20624;55.870;26.506;2023-11-21T05:28:55;8.68;;;4.47;;
34359;SDS011;20624;55.870;26.506;2023-11-21T05:31:23;8.73;;;3.80;;
34359;SDS011;20624;55.870;26.506;2023-11-21T05:33:51;5.57;;;2.80;;
34359;SDS011;20624;55.870;26.506;2023-11-21T05:36:19;5.88;;;3.30;;
34359;SDS011;20624;55.870;26.506;2023-11-21T05:38:47;6.97;;;2.70;;
34359;SDS011;20624;55.870;26.506;2023-11-21T05:41:15;6.07;;;2.90;;
34359;SDS011;20624;55.870;26.506;2023-11-21T05:43:43;18.58;;;4.85;;
34359;SDS011;20624;55.870;26.506;2023-11-21T05:46:11;8.02;;;3.20;;
34359;SDS011;20624;55.870;26.506;2023-11-21T05:48:40;8.70;;;3.78;;
34359;SDS011;20624;55.870;26.506;2023-11-21T05:51:08;9.18;;;4.05;;
34359;SDS011;20624;55.870;26.506;2023-11-21T05:53:39;16.02;;;4.82;;
34359;SDS011;20624;55.870;26.506;2023-11-21T05:56:07;22.52;;;5.93;;
34359;SDS011;20624;55.870;26.506;2023-11-21T05:58:35;15.05;;;4.95;;
34359;SDS011;20624;55.870;26.506;2023-11-21T06:01:05;26.90;;;6.70;;
34359;SDS011;20624;55.870;26.506;2023-11-21T06:03:39;24.98;;;5.65;;
34359;SDS011;20624;55.870;26.506;2023-11-21T06:06:07;17.10;;;4.38;;
34359;SDS011;20624;55.870;26.506;2023-11-21T06:08:35;10.30;;;4.32;;
34359;SDS011;20624;55.870;26.506;2023-11-21T06:11:03;13.13;;;3.72;;
34359;SDS011;20624;55.870;26.506;2023-11-21T06:13:31;17.48;;;4.93;;
34359;SDS011;20624;55.870;26.506;2023-11-21T06:15:59;21.73;;;4.53;;
34359;SDS011;20624;55.870;26.506;2023-11-21T06:18:27;14.55;;;4.25;;
34359;SDS011;20624;55.870;26.506;2023-11-21T06:20:55;16.45;;;5.10;;
34359;SDS011;20624;55.870;26.506;2023-11-21T06:23:23;23.30;;;5.38;;
34359;SDS011;20624;55.870;26.506;2023-11-21T06:25:51;15.60;;;4.43;;
34359;SDS011;20624;55.870;26.506;2023-11-21T06:28:19;17.65;;;4.45;;
34359;SDS011;20624;55.870;26.506;2023-11-21T06:30:48;31.33;;;6.75;;
34359;SDS011;20624;55.870;26.506;2023-11-21T06:33:17;11.60;;;3.25;;
34359;SDS011;20624;55.870;26.506;2023-11-21T06:35:45;19.15;;;4.43;;
34359;SDS011;20624;55.870;26.506;2023-11-21T06:38:13;14.77;;;3.95;;
34359;SDS011;20624;55.870;26.506;2023-11-21T06:40:40;19.92;;;4.35;;
34359;SDS011;20624;55.870;26.506;2023-11-21T06:43:09;16.02;;;4.38;;
34359;SDS011;20624;55.870;26.506;2023-11-21T06:45:36;12.40;;;3.92;;
34359;SDS011;20624;55.870;26.506;2023-11-21T06:48:05;17.45;;;4.32;;
34359;SDS011;20624;55.870;26.506;2023-11-21T06:50:33;11.35;;;3.17;;
34359;SDS011;20624;55.870;26.506;2023-11-21T06:53:02;25.05;;;5.45;;
34359;SDS011;20624;55.870;26.506;2023-11-21T06:55:33;27.15;;;5.70;;
34359;SDS011;20624;55.870;26.506;2023-11-21T06:58:01;13.75;;;3.28;;
34359;SDS011;20624;55.870;26.506;2023-11-21T07:00:31;16.35;;;4.22;;
34359;SDS011;20624;55.870;26.506;2023-11-21T07:03:00;17.65;;;4.00;;
34359;SDS011;20624;55.870;26.506;2023-11-21T07:05:28;17.63;;;3.65;;
34359;SDS011;20624;55.870;26.506;2023-11-21T07:07:56;25.88;;;5.13;;
34359;SDS011;20624;55.870;26.506;2023-11-21T07:10:25;15.90;;;3.47;;
34359;SDS011;20624;55.870;26.506;2023-11-21T07:12:53;15.82;;;3.67;;
34359;SDS011;20624;55.870;26.506;2023-11-21T07:15:21;23.02;;;4.93;;
34359;SDS011;20624;55.870;26.506;2023-11-21T07:17:49;21.80;;;4.45;;
34359;SDS011;20624;55.870;26.506;2023-11-21T07:20:20;10.60;;;3.28;;
34359;SDS011;20624;55.870;26.506;2023-11-21T07:22:49;13.18;;;3.40;;
34359;SDS011;20624;55.870;26.506;2023-11-21T07:25:17;22.45;;;4.88;;
34359;SDS011;20624;55.870;26.506;2023-11-21T07:27:46;25.98;;;4.82;;
34359;SDS011;20624;55.870;26.506;2023-11-21T07:30:14;27.38;;;5.20;;
34359;SDS011;20624;55.870;26.506;2023-11-21T07:32:42;20.83;;;4.07;;
34359;SDS011;20624;55.870;26.506;2023-11-21T07:35:13;10.20;;;2.42;;
34359;SDS011;20624;55.870;26.506;2023-11-21T07:37:41;18.17;;;3.85;;
34359;SDS011;20624;55.870;26.506;2023-11-21T07:40:09;29.73;;;4.82;;
34359;SDS011;20624;55.870;26.506;2023-11-21T07:42:38;26.55;;;5.28;;
34359;SDS011;20624;55.870;26.506;2023-11-21T07:45:06;36.70;;;6.50;;
34359;SDS011;20624;55.870;26.506;2023-11-21T07:47:34;36.20;;;6.15;;
34359;SDS011;20624;55.870;26.506;2023-11-21T07:50:03;49.58;;;8.40;;
34359;SDS011;20624;55.870;26.506;2023-11-21T07:52:32;24.15;;;5.40;;
34359;SDS011;20624;55.870;26.506;2023-11-21T07:55:00;31.75;;;5.85;;
34359;SDS011;20624;55.870;26.506;2023-11-21T07:57:28;30.50;;;5.40;;
34359;SDS011;20624;55.870;26.506;2023-11-21T07:59:56;26.10;;;5.22;;
34359;SDS011;20624;55.870;26.506;2023-11-21T08:02:24;14.02;;;3.03;;
34359;SDS011;20624;55.870;26.506;2023-11-21T08:04:54;14.35;;;3.17;;
34359;SDS011;20624;55.870;26.506;2023-11-21T08:07:23;43.00;;;7.85;;
34359;SDS011;20624;55.870;26.506;2023-11-21T08:09:52;17.70;;;4.63;;
34359;SDS011;20624;55.870;26.506;2023-11-21T08:12:20;25.00;;;4.53;;
34359;SDS011;20624;55.870;26.506;2023-11-21T08:14:49;15.38;;;3.90;;
34359;SDS011;20624;55.870;26.506;2023-11-21T08:17:17;43.20;;;8.38;;
34359;SDS011;20624;55.870;26.506;2023-11-21T08:19:46;7.85;;;1.88;;
34359;SDS011;20624;55.870;26.506;2023-11-21T08:22:16;24.35;;;5.20;;
34359;SDS011;20624;55.870;26.506;2023-11-21T08:24:47;23.52;;;4.97;;
34359;SDS011;20624;55.870;26.506;2023-11-21T08:27:15;18.17;;;3.92;;
34359;SDS011;20624;55.870;26.506;2023-11-21T08:29:43;12.88;;;3.35;;
34359;SDS011;20624;55.870;26.506;2023-11-21T08:32:11;21.80;;;3.92;;
34359;SDS011;20624;55.870;26.506;2023-11-21T08:34:39;18.35;;;3.63;;
34359;SDS011;20624;55.870;26.506;2023-11-21T08:37:10;12.57;;;3.33;;
34359;SDS011;20624;55.870;26.506;2023-11-21T08:39:38;19.42;;;4.70;;
34359;SDS011;20624;55.870;26.506;2023-11-21T08:42:12;21.90;;;4.93;;
34359;SDS011;20624;55.870;26.506;2023-11-21T08:44:41;21.35;;;4.35;;
34359;SDS011;20624;55.870;26.506;2023-11-21T08:47:11;21.50;;;4.75;;
34359;SDS011;20624;55.870;26.506;2023-11-21T08:49:39;13.80;;;3.38;;
34359;SDS011;20624;55.870;26.506;2023-11-21T08:52:07;14.02;;;2.75;;
34359;SDS011;20624;55.870;26.506;2023-11-21T08:54:39;19.55;;;4.18;;
34359;SDS011;20624;55.870;26.506;2023-11-21T08:57:08;16.25;;;3.40;;
34359;SDS011;20624;55.870;26.506;2023-11-21T08:59:36;17.13;;;3.85;;
34359;SDS011;20624;55.870;26.506;2023-11-21T09:02:04;13.38;;;2.92;;
34359;SDS011;20624;55.870;26.506;2023-11-21T09:04:33;15.88;;;4.10;;
34359;SDS011;20624;55.870;26.506;2023-11-21T09:07:01;17.35;;;3.85;;
34359;SDS011;20624;55.870;26.506;2023-11-21T09:09:29;20.38;;;5.40;;
34359;SDS011;20624;55.870;26.506;2023-11-21T09:11:57;16.48;;;3.20;;
34359;SDS011;20624;55.870;26.506;2023-11-21T09:16:55;18.77;;;4.78;;
34359;SDS011;20624;55.870;26.506;2023-11-21T09:19:25;25.58;;;5.10;;
34359;SDS011;20624;55.870;26.506;2023-11-21T09:21:53;39.53;;;7.60;;
34359;SDS011;20624;55.870;26.506;2023-11-21T09:24:21;18.77;;;4.05;;
34359;SDS011;20624;55.870;26.506;2023-11-21T09:26:50;16.15;;;4.28;;
34359;SDS011;20624;55.870;26.506;2023-11-21T09:29:18;26.23;;;6.22;;
34359;SDS011;20624;55.870;26.506;2023-11-21T09:31:46;33.97;;;7.40;;
34359;SDS011;20624;55.870;26.506;2023-11-21T09:34:14;37.22;;;7.10;;
34359;SDS011;20624;55.870;26.506;2023-11-21T09:36:47;30.75;;;7.00;;
34359;SDS011;20624;55.870;26.506;2023-11-21T09:39:14;44.03;;;9.25;;
34359;SDS011;20624;55.870;26.506;2023-11-21T09:41:50;30.85;;;6.28;;
34359;SDS011;20624;55.870;26.506;2023-11-21T09:44:44;37.42;;;7.78;;
34359;SDS011;20624;55.870;26.506;2023-11-21T09:47:10;27.65;;;6.22;;
34359;SDS011;20624;55.870;26.506;2023-11-21T09:49:45;39.38;;;8.30;;
34359;SDS011;20624;55.870;26.506;2023-11-21T09:52:18;20.08;;;4.50;;
34359;SDS011;20624;55.870;26.506;2023-11-21T09:54:52;26.95;;;4.45;;
34359;SDS011;20624;55.870;26.506;2023-11-21T09:57:20;21.02;;;4.50;;
34359;SDS011;20624;55.870;26.506;2023-11-21T09:59:52;13.50;;;2.63;;
34359;SDS011;20624;55.870;26.506;2023-11-21T10:02:27;19.33;;;5.00;;
34359;SDS011;20624;55.870;26.506;2023-11-21T10:04:59;30.83;;;6.85;;
34359;SDS011;20624;55.870;26.506;2023-11-21T10:07:27;19.75;;;5.10;;
34359;SDS011;20624;55.870;26.506;2023-11-21T10:09:57;16.38;;;4.72;;
34359;SDS011;20624;55.870;26.506;2023-11-21T10:12:26;17.65;;;5.05;;
34359;SDS011;20624;55.870;26.506;2023-11-21T10:14:54;22.52;;;5.82;;
34359;SDS011;20624;55.870;26.506;2023-11-21T10:17:24;20.98;;;4.85;;
34359;SDS011;20624;55.870;26.506;2023-11-21T10:19:53;18.85;;;5.10;;
34359;SDS011;20624;55.870;26.506;2023-11-21T10:22:22;20.50;;;5.10;;
34359;SDS011;20624;55.870;26.506;2023-11-21T10:24:52;19.95;;;4.95;;
34359;SDS011;20624;55.870;26.506;2023-11-21T10:27:20;13.07;;;3.78;;
34359;SDS011;20624;55.870;26.506;2023-11-21T10:29:51;17.98;;;4.30;;
34359;SDS011;20624;55.870;26.506;2023-11-21T10:32:18;18.35;;;4.22;;
34359;SDS011;20624;55.870;26.506;2023-11-21T10:34:56;23.27;;;5.30;;
34359;SDS011;20624;55.870;26.506;2023-11-21T10:37:27;23.98;;;5.03;;
34359;SDS011;20624;55.870;26.506;2023-11-21T10:39:59;14.88;;;2.70;;
34359;SDS011;20624;55.870;26.506;2023-11-21T10:42:29;32.40;;;6.38;;
34359;SDS011;20624;55.870;26.506;2023-11-21T10:44:56;24.45;;;4.97;;
34359;SDS011;20624;55.870;26.506;2023-11-21T10:47:26;22.50;;;4.97;;
34359;SDS011;20624;55.870;26.506;2023-11-21T10:49:55;30.00;;;5.57;;
34359;SDS011;20624;55.870;26.506;2023-11-21T10:52:26;27.30;;;5.43;;
34359;SDS011;20624;55.870;26.506;2023-11-21T10:54:55;28.65;;;5.45;;
34359;SDS011;20624;55.870;26.506;2023-11-21T10:57:25;18.35;;;4.10;;
34359;SDS011;20624;55.870;26.506;2023-11-21T10:59:54;27.10;;;5.78;;
34359;SDS011;20624;55.870;26.506;2023-11-21T11:02:25;24.48;;;5.13;;
34359;SDS011;20624;55.870;26.506;2023-11-21T11:04:59;21.17;;;4.97;;
34359;SDS011;20624;55.870;26.506;2023-11-21T11:07:27;26.85;;;5.45;;
34359;SDS011;20624;55.870;26.506;2023-11-21T11:09:58;25.15;;;5.13;;
34359;SDS011;20624;55.870;26.506;2023-11-21T11:12:26;17.77;;;4.78;;
34359;SDS011;20624;55.870;26.506;2023-11-21T11:14:55;22.67;;;4.80;;
34359;SDS011;20624;55.870;26.506;2023-11-21T11:17:23;35.80;;;7.22;;
34359;SDS011;20624;55.870;26.506;2023-11-21T11:19:51;34.83;;;6.75;;
34359;SDS011;20624;55.870;26.506;2023-11-21T11:22:31;14.27;;;3.72;;
34359;SDS011;20624;55.870;26.506;2023-11-21T11:35:33;15.50;;;3.22;;
34359;SDS011;20624;55.870;26.506;2023-11-21T11:38:02;17.33;;;4.10;;
34359;SDS011;20624;55.870;26.506;2023-11-21T11:40:40;20.25;;;3.17;;
34359;SDS011;20624;55.870;26.506;2023-11-21T11:43:08;20.88;;;3.97;;
34359;SDS011;20624;55.870;26.506;2023-11-21T11:45:36;23.80;;;4.40;;
34359;SDS011;20624;55.870;26.506;2023-11-21T11:48:10;31.65;;;5.20;;
34359;SDS011;20624;55.870;26.506;2023-11-21T11:50:53;39.33;;;7.25;;
34359;SDS011;20624;55.870;26.506;2023-11-21T11:53:36;26.55;;;4.20;;
34359;SDS011;20624;55.870;26.506;2023-11-21T11:56:23;16.98;;;3.63;;
34359;SDS011;20624;55.870;26.506;2023-11-21T11:58:55;56.42;;;9.85;;
34359;SDS011;20624;55.870;26.506;2023-11-21T12:01:24;37.63;;;6.60;;
34359;SDS011;20624;55.870;26.506;2023-11-21T12:07:10;64.78;;;11.07;;
34359;SDS011;20624;55.870;26.506;2023-11-21T12:09:41;37.30;;;6.43;;
34359;SDS011;20624;55.870;26.506;2023-11-21T12:12:10;41.58;;;7.43;;
34359;SDS011;20624;55.870;26.506;2023-11-21T12:14:38;44.80;;;7.47;;
34359;SDS011;20624;55.870;26.506;2023-11-21T12:17:07;39.13;;;7.20;;
34359;SDS011;20624;55.870;26.506;2023-11-21T12:19:35;14.80;;;3.88;;
34359;SDS011;20624;55.870;26.506;2023-11-21T12:22:04;42.50;;;7.60;;
34359;SDS011;20624;55.870;26.506;2023-11-21T12:24:32;32.85;;;6.25;;
34359;SDS011;20624;55.870;26.506;2023-11-21T12:27:01;50.63;;;9.20;;
34359;SDS011;20624;55.870;26.506;2023-11-21T12:29:29;35.58;;;6.97;;
34359;SDS011;20624;55.870;26.506;2023-11-21T12:31:59;47.85;;;8.60;;
34359;SDS011;20624;55.870;26.506;2023-11-21T12:34:31;40.88;;;7.28;;
34359;SDS011;20624;55.870;26.506;2023-11-21T12:36:59;19.80;;;4.45;;
34359;SDS011;20624;55.870;26.506;2023-11-21T12:39:27;20.92;;;4.68;;
34359;SDS011;20624;55.870;26.506;2023-11-21T12:41:55;13.43;;;3.30;;
34359;SDS011;20624;55.870;26.506;2023-11-21T12:44:23;30.67;;;6.13;;
34359;SDS011;20624;55.870;26.506;2023-11-21T12:46:53;15.35;;;3.38;;
34359;SDS011;20624;55.870;26.506;2023-11-21T12:49:22;22.58;;;4.40;;
34359;SDS011;20624;55.870;26.506;2023-11-21T12:51:51;42.88;;;7.97;;
34359;SDS011;20624;55.870;26.506;2023-11-21T12:54:23;23.67;;;5.03;;
34359;SDS011;20624;55.870;26.506;2023-11-21T12:56:51;19.48;;;4.35;;
34359;SDS011;20624;55.870;26.506;2023-11-21T12:59:20;28.55;;;4.95;;
34359;SDS011;20624;55.870;26.506;2023-11-21T13:01:48;14.80;;;2.80;;
34359;SDS011;20624;55.870;26.506;2023-11-21T13:04:18;31.38;;;6.63;;
34359;SDS011;20624;55.870;26.506;2023-11-21T13:06:46;28.77;;;6.47;;
34359;SDS011;20624;55.870;26.506;2023-11-21T13:09:14;19.60;;;4.38;;
34359;SDS011;20624;55.870;26.506;2023-11-21T13:11:48;20.73;;;4.68;;
34359;SDS011;20624;55.870;26.506;2023-11-21T13:14:16;19.60;;;4.45;;
34359;SDS011;20624;55.870;26.506;2023-11-21T13:16:44;19.02;;;4.07;;
34359;SDS011;20624;55.870;26.506;2023-11-21T13:19:13;24.70;;;5.22;;
34359;SDS011;20624;55.870;26.506;2023-11-21T13:21:41;18.45;;;4.53;;
34359;SDS011;20624;55.870;26.506;2023-11-21T13:24:10;19.90;;;5.10;;
34359;SDS011;20624;55.870;26.506;2023-11-21T13:26:38;27.90;;;5.97;;
34359;SDS011;20624;55.870;26.506;2023-11-21T13:29:06;34.45;;;7.03;;
34359;SDS011;20624;55.870;26.506;2023-11-21T13:31:34;36.13;;;7.03;;
34359;SDS011;20624;55.870;26.506;2023-11-21T13:34:04;24.20;;;5.40;;
34359;SDS011;20624;55.870;26.506;2023-11-21T13:36:32;34.10;;;6.93;;
34359;SDS011;20624;55.870;26.506;2023-11-21T13:39:02;21.55;;;5.80;;
34359;SDS011;20624;55.870;26.506;2023-11-21T13:41:37;22.17;;;6.07;;
34359;SDS011;20624;55.870;26.506;2023-11-21T13:44:13;21.23;;;5.80;;
34359;SDS011;20624;55.870;26.506;2023-11-21T13:46:53;23.83;;;6.47;;
34359;SDS011;20624;55.870;26.506;2023-11-21T13:49:24;30.50;;;7.43;;
34359;SDS011;20624;55.870;26.506;2023-11-21T13:51:53;23.35;;;5.80;;
34359;SDS011;20624;55.870;26.506;2023-11-21T13:54:22;22.58;;;6.28;;
34359;SDS011;20624;55.870;26.506;2023-11-21T13:56:52;16.27;;;4.30;;
34359;SDS011;20624;55.870;26.506;2023-11-21T13:59:21;31.42;;;9.15;;
34359;SDS011;20624;55.870;26.506;2023-11-21T14:01:55;41.63;;;9.00;;
34359;SDS011;20624;55.870;26.506;2023-11-21T14:04:25;17.25;;;5.93;;
34359;SDS011;20624;55.870;26.506;2023-11-21T14:07:11;28.30;;;9.10;;
34359;SDS011;20624;55.870;26.506;2023-11-21T14:09:52;53.50;;;11.90;;
34359;SDS011;20624;55.870;26.506;2023-11-21T14:12:20;37.65;;;9.32;;
34359;SDS011;20624;55.870;26.506;2023-11-21T14:14:48;43.63;;;11.00;;
34359;SDS011;20624;55.870;26.506;2023-11-21T14:17:16;38.90;;;8.98;;
34359;SDS011;20624;55.870;26.506;2023-11-21T14:19:44;39.60;;;11.18;;
34359;SDS011;20624;55.870;26.506;2023-11-21T14:22:13;44.83;;;10.20;;
34359;SDS011;20624;55.870;26.506;2023-11-21T14:24:41;43.95;;;8.70;;
34359;SDS011;20624;55.870;26.506;2023-11-21T14:27:13;30.95;;;6.25;;
34359;SDS011;20624;55.870;26.506;2023-11-21T14:29:44;34.45;;;6.78;;
34359;SDS011;20624;55.870;26.506;2023-11-21T14:32:13;9.75;;;2.30;;
34359;SDS011;20624;55.870;26.506;2023-11-21T14:34:42;14.93;;;3.38;;
34359;SDS011;20624;55.870;26.506;2023-11-21T14:37:13;13.55;;;3.40;;
34359;SDS011;20624;55.870;26.506;2023-11-21T14:39:41;12.55;;;3.58;;
34359;SDS011;20624;55.870;26.506;2023-11-21T14:42:16;8.55;;;2.63;;
34359;SDS011;20624;55.870;26.506;2023-11-21T14:44:51;28.17;;;5.15;;
34359;SDS011;20624;55.870;26.506;2023-11-21T14:47:20;13.40;;;2.65;;
34359;SDS011;20624;55.870;26.506;2023-11-21T14:49:55;13.60;;;3.42;;
34359;SDS011;20624;55.870;26.506;2023-11-21T14:52:26;10.60;;;2.80;;
34359;SDS011;20624;55.870;26.506;2023-11-21T14:55:02;21.75;;;4.80;;